weather.gov     
National Weather Service

Terminal Aerodrome Forecast
NWS Homepage
This page is being discontinued on March 12, 2014.
The same data is available at this site. Please update your bookmarks.
Thank you, and we apologize for the inconvenience.
Please send an email to SR-SRH.Webmaster@noaa.gov with any concerns.


Current Version
Previous Version:    01  02  03  04  05  06  07  08  09  10  11  12  13  14  
[Printable]
504
FTUS41 KBTV 191700
TAFMPV
TAF
KMPV 191728Z 1918/2018 33014G20KT P6SM BKN015 OVC020
      TEMPO 1918/1922 SCT015 OVC020
     FM192200 33014KT P6SM SCT025 BKN035
     FM200000 VRB03KT P6SM SKC
     FM201500 18005KT P6SM SKC=


U.S. Dept. of Commerce
NOAA National Weather Service
1325 East West Highway
Silver Spring, MD 20910
E-mail: w-nws.webmaster@noaa.gov
Page last modified: May 16, 2007
NATIONAL WEATHER SERVICE: for Safety, for Work, for Fun - FOR LIFE